< Typhoon 201718 2017 Season Typhoon 201720 >
Typhoon 201719 (DOKSURI)
General InformationTrack Information on Google MapsDetailed Wind InformationForecast History on Google MapsAccess Analytics MapList of All Images || Disaster Info.WeblogTrackbackTyphoon FrontTwiphoonTyphoon Now!Typhoon ImaginationJMA Disaster Info. XMLResourceGoogle EarthGE AnimationAtom FeedGeoJSON
Detalied Best Track (Time Zone = UTC)
Year Month Day Hour Lat. Long. Pressure (hPa) Wind (kt) Class Image Chart
2017 9 10 00 14.3 130.0 1004 0 2 Image Chart
2017 9 10 06 14.4 129.1 1004 0 2 Image Chart
2017 9 10 12 14.4 128.0 1004 0 2 Image Chart
2017 9 10 18 14.4 127.1 1004 0 2 Image Chart
2017 9 11 00 14.7 126.2 1004 0 2 Image Chart
2017 9 11 06 14.7 124.9 1002 0 2 Image Chart
2017 9 11 12 14.7 123.9 1002 0 2 Image Chart
2017 9 11 18 14.6 123.0 1002 0 2 Image Chart
2017 9 12 00 14.4 122.1 1002 0 2 Image Chart
2017 9 12 06 14.6 120.7 1000 0 2 Image Chart
2017 9 12 12 14.3 119.5 998 35 3 Image Chart
2017 9 12 18 14.7 118.1 998 40 3 Image Chart
2017 9 13 00 14.7 117.2 996 40 3 Image Chart
2017 9 13 06 15.3 116.0 996 40 3 Image Chart
2017 9 13 12 15.5 114.6 996 40 3 Image Chart
2017 9 13 18 15.9 113.6 990 50 4 Image Chart
2017 9 14 00 16.1 112.2 980 55 4 Image Chart
2017 9 14 06 16.4 111.4 970 65 5 Image Chart
2017 9 14 12 17.0 109.8 955 80 5 Image Chart
2017 9 14 18 17.4 108.7 955 80 5 Image Chart
2017 9 15 00 17.8 107.4 955 80 5 Image Chart
2017 9 15 06 17.7 106.1 955 80 5 Image Chart
2017 9 15 12 18.1 104.7 980 60 4 Image Chart
2017 9 15 18 18.3 102.7 996 40 3 Image Chart
2017 9 16 00 18.6 101.0 1002 0 2 Image Chart
Japan Meteorological Agency Best Track Data | Correction Date : 2017-11-07
< Typhoon 201718 2017 Season Typhoon 201720 >

Help